This is the latest recevied weather packets stored in our database for station/object GW1596. If no packets are shown the sender has not sent any weather packets the latest 10 day(s).
| Time | Temp. | Humidity | Pressure | Rain* | Wind** | Luminosity | Snow |
|---|---|---|---|---|---|---|---|
| 1778038035 | 15° C | 84% | 1011.1 hPa | 0 mm | - | - | - |
| 1778037350 | 15.56° C | 79% | 1010.8 hPa | 0 mm | - | - | - |
| 1778036267 | 16.11° C | 74% | 1010.8 hPa | 0 mm | - | - | - |
| 1778035889 | 16.67° C | 71% | 1011.1 hPa | 0 mm | - | - | - |
| 1778032311 | 18.33° C | 58% | 1011.1 hPa | 0 mm | - | - | - |
| 1778024727 | 21.11° C | 51% | 1011.1 hPa | 0 mm | - | - | - |
| 1778019674 | 22.78° C | 44% | 1011.1 hPa | 0 mm | - | - | - |
| 1778018261 | 23.33° C | 46% | 1011.1 hPa | 0 mm | - | - | - |
| 1778017909 | 23.33° C | 42% | 1011.5 hPa | 0 mm | - | - | - |
| 1778017181 | 23.89° C | 42% | 1011.5 hPa | 0 mm | - | - | - |
| 1778016463 | 23.33° C | 44% | 1011.5 hPa | 0 mm | - | - | - |
| 1778011780 | 23.33° C | 38% | 1012.1 hPa | 0 mm | - | - | - |
| 1778008172 | 23.89° C | 42% | 1012.5 hPa | 0 mm | - | - | - |
| 1778007816 | 23.89° C | 43% | 1012.5 hPa | 0 mm | - | - | - |
| 1778003485 | 23.89° C | 43% | 1012.5 hPa | 0 mm | - | - | - |
| 1778003125 | 23.89° C | 44% | 1012.5 hPa | 0 mm | - | - | - |
| 1778000979 | 24.44° C | 44% | 1012.5 hPa | 0 mm | - | - | - |
| 1778000609 | 24.44° C | 47% | 1012.5 hPa | 0 mm | - | - | - |
| 1777999512 | 24.44° C | 43% | 1012.5 hPa | 0 mm | - | - | - |
| 1777998439 | 24.44° C | 45% | 1012.8 hPa | 0 mm | - | - | - |
| 1777998108 | 23.33° C | 43% | 1012.8 hPa | 0 mm | - | - | - |
| 1777997735 | 24.44° C | 42% | 1012.8 hPa | 0 mm | - | - | - |
| 1777993411 | 22.78° C | 47% | 1013.2 hPa | 0 mm | - | - | - |
| 1777992708 | 22.22° C | 45% | 1013.2 hPa | 0 mm | - | - | - |
| 1777991952 | 22.78° C | 46% | 1013.2 hPa | 0 mm | - | - | - |
* Rain since midnight (hover to see other rain measurements)
** Current wind speed in m/s (hover to see current wind gust speed)